aviador You're here:

LFLL Decoded Metar

LYON ST. EXUPERY in FRANCE
Report Time2017-08-06 08:00:00
UTC Time2017-08-22 16:34:36
Flight Rules Old
Wind350° at 12 kt
W.Decomp.*RWY 36: 11.8 kt HW 2.3 kt LCW
W.Rank350° ranks 1
Current wind is above 350° avg. (8.9)
Visibility9999 m
Phenomena:N/A
Clouds:N/A
Expected CloudBase > 3,200 ft AGL from Temp-Dew spread
CeilingNone
Temp20°C (ISA +7)
Dew Point12°C (60% RH)
AAT16.3°C
QNH1021 hPa
Density Alt1,476 ft
Elevation787 ft
Report Wrong Elevation
Raw Report
METAR LFLL 060800Z 35012KT CAVOK 20/12 Q1021 NOSIG=

Extra information for LFLL:More info

Metar Taf Metar & Taf Last 4 Metars F.Rules Stats Wind Profile Meteogram Temp Stats Airport Information Weather charts Add Link Nearby VenuesMetar ALERT Operation Metar Decoded Social comments